Time;durP1;ratioP1;P1;durP2;ratioP2;P2;SDS_P1;SDS_P2;PMS_P1;PMS_P2;Temp;Humidity;BMP_temperature;BMP_pressure;BME280_temperature;BME280_humidity;BME280_pressure;Samples;Min_cycle;Max_cycle;Signal;HPM_P1;HPM_P2
2021/10/28 00:14:25;;;;;;;2.00;1.80;;;;;;;;;;5033689;28;20200;-64
2021/10/28 00:17:01;;;;;;;2.03;1.83;;;;;;;;;;5032548;28;20198;-64
2021/10/28 00:19:33;;;;;;;2.90;1.63;;;;;;;;;;5044054;28;20643;-64
2021/10/28 00:22:06;;;;;;;2.90;1.73;;;;;;;;;;5044868;28;20291;-64
2021/10/28 00:24:45;;;;;;;1.80;1.60;;;;;;;;;;5061970;28;20197;-64
2021/10/28 00:27:27;;;;;;;2.47;1.90;;;;;;;;;;5055368;28;20206;-65
2021/10/28 00:29:59;;;;;;;1.93;1.70;;;;;;;;;;5057579;28;20201;-64
2021/10/28 00:32:29;;;;;;;2.33;1.90;;;;;;;;;;5063166;28;20746;-65
2021/10/28 00:35:05;;;;;;;2.13;1.80;;;;;;;;;;5062014;28;20236;-64
2021/10/28 00:37:50;;;;;;;1.90;1.60;;;;;;;;;;5063465;28;20198;-65
2021/10/28 00:40:23;;;;;;;1.93;1.73;;;;;;;;;;5058417;28;20212;-65
2021/10/28 00:42:55;;;;;;;2.37;2.00;;;;;;;;;;5033538;28;20235;-64
2021/10/28 00:45:30;;;;;;;2.00;1.90;;;;;;;;;;5057072;28;20249;-64
2021/10/28 00:48:02;;;;;;;2.10;1.90;;;;;;;;;;5061408;28;20205;-64
2021/10/28 00:50:40;;;;;;;2.90;1.80;;;;;;;;;;5056979;28;20260;-64
2021/10/28 00:53:13;;;;;;;1.70;1.60;;;;;;;;;;5060257;28;20202;-64
2021/10/28 00:55:44;;;;;;;1.90;1.73;;;;;;;;;;5055321;28;20200;-65
2021/10/28 00:58:20;;;;;;;2.27;2.07;;;;;;;;;;5062918;28;20226;-64
2021/10/28 01:00:52;;;;;;;2.00;1.80;;;;;;;;;;5042615;28;20209;-65
2021/10/28 01:03:28;;;;;;;1.80;1.70;;;;;;;;;;5065542;28;20197;-64
2021/10/28 01:05:58;;;;;;;2.33;1.77;;;;;;;;;;5059491;28;20216;-65
2021/10/28 01:08:32;;;;;;;2.03;1.67;;;;;;;;;;5047938;28;20181;-65
2021/10/28 01:11:02;;;;;;;1.87;1.70;;;;;;;;;;5047032;28;20237;-64
2021/10/28 01:13:31;;;;;;;1.83;1.73;;;;;;;;;;5059988;28;20198;-65
2021/10/28 01:16:00;;;;;;;2.30;2.10;;;;;;;;;;5050264;28;20204;-64
2021/10/28 01:18:38;;;;;;;2.20;1.77;;;;;;;;;;5046165;28;20309;-64
2021/10/28 01:21:11;;;;;;;1.90;1.70;;;;;;;;;;5063728;28;20206;-64
2021/10/28 01:23:41;;;;;;;1.80;1.70;;;;;;;;;;5039327;28;20244;-64
2021/10/28 01:26:18;;;;;;;2.00;1.90;;;;;;;;;;5065518;28;20217;-64
2021/10/28 01:29:04;;;;;;;2.20;1.90;;;;;;;;;;5061832;28;20675;-64
2021/10/28 01:31:34;;;;;;;1.60;1.50;;;;;;;;;;5065583;28;20207;-64
2021/10/28 01:34:06;;;;;;;1.63;1.53;;;;;;;;;;5038748;28;20237;-64
2021/10/28 01:36:38;;;;;;;2.07;1.87;;;;;;;;;;5065767;28;20197;-64
2021/10/28 01:39:21;;;;;;;2.00;1.83;;;;;;;;;;5054858;28;20206;-64
2021/10/28 01:41:56;;;;;;;2.43;2.23;;;;;;;;;;5060855;28;20682;-65
2021/10/28 01:44:29;;;;;;;2.73;1.73;;;;;;;;;;5044519;28;20223;-64
2021/10/28 01:47:05;;;;;;;2.00;1.73;;;;;;;;;;5064166;28;20316;-64
2021/10/28 01:49:36;;;;;;;1.97;1.77;;;;;;;;;;5065305;28;20211;-64
2021/10/28 01:52:06;;;;;;;1.80;1.70;;;;;;;;;;5064288;28;20230;-64
2021/10/28 01:54:37;;;;;;;2.20;2.00;;;;;;;;;;5045084;28;20206;-64
2021/10/28 01:57:15;;;;;;;2.03;1.93;;;;;;;;;;5061241;28;20276;-64
2021/10/28 01:59:45;;;;;;;2.20;2.00;;;;;;;;;;5062298;28;20218;-64
2021/10/28 02:02:17;;;;;;;2.10;1.93;;;;;;;;;;5060152;28;20203;-64
2021/10/28 02:04:52;;;;;;;2.50;2.27;;;;;;;;;;5069690;28;20251;-64
2021/10/28 02:07:24;;;;;;;2.00;1.90;;;;;;;;;;5059027;28;20182;-64
2021/10/28 02:09:55;;;;;;;1.80;1.70;;;;;;;;;;5063829;28;20183;-64
2021/10/28 02:12:25;;;;;;;1.70;1.60;;;;;;;;;;5059554;28;20212;-64
2021/10/28 02:14:57;;;;;;;2.13;1.80;;;;;;;;;;5053902;28;20277;-64
2021/10/28 02:17:27;;;;;;;1.77;1.60;;;;;;;;;;5061363;28;20220;-64
2021/10/28 02:19:59;;;;;;;2.30;2.03;;;;;;;;;;5051525;28;20204;-64
2021/10/28 02:22:32;;;;;;;2.53;2.33;;;;;;;;;;5055522;28;20221;-64
2021/10/28 02:25:03;;;;;;;1.90;1.80;;;;;;;;;;5048558;28;20621;-64
2021/10/28 02:27:34;;;;;;;2.10;1.90;;;;;;;;;;5027490;28;20194;-64
2021/10/28 02:30:02;;;;;;;2.03;1.93;;;;;;;;;;5047497;28;20194;-64
2021/10/28 02:32:33;;;;;;;1.93;1.70;;;;;;;;;;5043148;28;20205;-64
2021/10/28 02:35:03;;;;;;;2.30;2.10;;;;;;;;;;5043757;28;20656;-64
2021/10/28 02:37:31;;;;;;;2.40;2.20;;;;;;;;;;5043075;28;20198;-64
2021/10/28 02:40:01;;;;;;;2.20;1.97;;;;;;;;;;5046181;28;20209;-64
2021/10/28 02:42:32;;;;;;;2.10;1.90;;;;;;;;;;5014294;28;20337;-64
2021/10/28 02:45:04;;;;;;;1.80;1.67;;;;;;;;;;5029839;28;20191;-64
2021/10/28 02:47:35;;;;;;;2.00;1.80;;;;;;;;;;5036440;28;20195;-64
2021/10/28 02:50:08;;;;;;;2.40;2.20;;;;;;;;;;5040842;28;20202;-65
2021/10/28 02:52:40;;;;;;;1.83;1.73;;;;;;;;;;5047720;28;20222;-64
2021/10/28 02:55:11;;;;;;;1.93;1.70;;;;;;;;;;5045391;28;20614;-64
2021/10/28 02:57:45;;;;;;;1.80;1.70;;;;;;;;;;5016499;28;20198;-64
2021/10/28 03:00:17;;;;;;;1.90;1.80;;;;;;;;;;5042010;28;20210;-64
2021/10/28 03:02:46;;;;;;;1.90;1.80;;;;;;;;;;5046871;28;20559;-64
2021/10/28 03:05:19;;;;;;;2.20;2.10;;;;;;;;;;5043121;28;20214;-64
2021/10/28 03:07:51;;;;;;;2.70;2.13;;;;;;;;;;5030250;28;20288;-64
2021/10/28 03:10:23;;;;;;;2.10;1.70;;;;;;;;;;5039398;28;20236;-64
2021/10/28 03:12:58;;;;;;;2.57;2.10;;;;;;;;;;5033092;28;20622;-64
2021/10/28 03:15:35;;;;;;;2.23;2.03;;;;;;;;;;5024134;28;20764;-65
2021/10/28 03:26:46;;;;;;;2.20;2.00;;;;;;;;;;5066225;28;20233;-64
2021/10/28 03:29:17;;;;;;;1.90;1.70;;;;;;;;;;5062681;28;20203;-65
2021/10/28 03:31:47;;;;;;;2.10;1.90;;;;;;;;;;5063942;28;20221;-64
2021/10/28 03:34:19;;;;;;;2.00;1.90;;;;;;;;;;5063030;28;20210;-65
2021/10/28 03:37:16;;;;;;;2.13;1.90;;;;;;;;;;5053359;28;20801;-64
2021/10/28 03:59:55;;;;;;;1.87;1.77;;;;;;;;;;5058754;28;20206;-64
2021/10/28 04:16:50;;;;;;;2.40;2.20;;;;;;;;;;5055662;28;20625;-64
2021/10/28 04:30:25;;;;;;;2.27;2.07;;;;;;;;;;5047876;28;20210;-64
2021/10/28 04:32:54;;;;;;;2.43;2.23;;;;;;;;;;5013920;28;20174;-64
2021/10/28 04:35:25;;;;;;;4.47;2.50;;;;;;;;;;5043967;28;20633;-65
2021/10/28 04:37:57;;;;;;;2.30;2.10;;;;;;;;;;5037426;28;20218;-64
2021/10/28 04:40:28;;;;;;;2.50;2.30;;;;;;;;;;5046844;28;20202;-64
2021/10/28 04:42:59;;;;;;;2.80;2.53;;;;;;;;;;5042010;28;20190;-65
2021/10/28 04:45:33;;;;;;;3.10;2.40;;;;;;;;;;5040326;28;20237;-64
2021/10/28 04:48:02;;;;;;;2.33;2.13;;;;;;;;;;5020002;28;20198;-64
2021/10/28 04:50:32;;;;;;;2.97;2.67;;;;;;;;;;5044706;28;20247;-64
2021/10/28 04:53:02;;;;;;;2.80;2.60;;;;;;;;;;5042559;28;20190;-65
2021/10/28 04:55:32;;;;;;;2.60;2.40;;;;;;;;;;5045567;28;20557;-65
2021/10/28 04:58:03;;;;;;;3.07;2.77;;;;;;;;;;5025584;28;20199;-64
2021/10/28 05:00:36;;;;;;;2.97;2.60;;;;;;;;;;5039229;28;20209;-64
2021/10/28 05:03:07;;;;;;;2.40;2.20;;;;;;;;;;5015619;28;20191;-64
2021/10/28 05:05:38;;;;;;;2.67;2.47;;;;;;;;;;5041327;28;20207;-64
2021/10/28 05:08:10;;;;;;;2.47;2.27;;;;;;;;;;5031951;28;20194;-64
2021/10/28 05:10:43;;;;;;;3.20;2.33;;;;;;;;;;5036915;28;20215;-64
2021/10/28 05:13:15;;;;;;;3.03;2.77;;;;;;;;;;5027628;28;20191;-64
2021/10/28 05:15:47;;;;;;;3.33;2.30;;;;;;;;;;5037468;28;20202;-64
2021/10/28 05:18:20;;;;;;;2.13;2.00;;;;;;;;;;5046781;28;20274;-64
2021/10/28 05:20:49;;;;;;;2.40;2.20;;;;;;;;;;5044686;28;20201;-64
2021/10/28 05:23:21;;;;;;;2.90;2.60;;;;;;;;;;5034243;28;20225;-65
2021/10/28 05:25:51;;;;;;;3.63;2.73;;;;;;;;;;5045211;28;20198;-64
2021/10/28 05:28:25;;;;;;;3.93;2.27;;;;;;;;;;5052970;28;20202;-64
2021/10/28 05:30:57;;;;;;;2.40;2.20;;;;;;;;;;5064265;28;20194;-64
2021/10/28 05:33:44;;;;;;;2.87;2.60;;;;;;;;;;5037993;28;20360;-64
2021/10/28 05:36:16;;;;;;;3.90;2.57;;;;;;;;;;5066675;28;20201;-64
2021/10/28 05:38:47;;;;;;;3.20;2.57;;;;;;;;;;5046389;28;20566;-64
2021/10/28 05:41:20;;;;;;;3.03;2.67;;;;;;;;;;5045110;28;20190;-64
2021/10/28 05:43:50;;;;;;;2.77;2.50;;;;;;;;;;5059749;28;20210;-64
2021/10/28 05:46:26;;;;;;;2.47;2.27;;;;;;;;;;5067750;28;20225;-64
2021/10/28 05:48:58;;;;;;;2.70;2.50;;;;;;;;;;5062146;28;20198;-65
2021/10/28 05:51:32;;;;;;;3.50;2.87;;;;;;;;;;5048472;28;20259;-64
2021/10/28 05:54:02;;;;;;;3.07;2.37;;;;;;;;;;5060301;28;20627;-64
2021/10/28 05:56:34;;;;;;;3.57;2.30;;;;;;;;;;5070902;28;20189;-64
2021/10/28 05:59:02;;;;;;;3.13;2.83;;;;;;;;;;5059049;28;20226;-64
2021/10/28 06:01:29;;;;;;;2.90;2.60;;;;;;;;;;5051105;28;20229;-64
2021/10/28 06:04:05;;;;;;;2.90;2.60;;;;;;;;;;5059471;28;20624;-64
2021/10/28 06:06:50;;;;;;;3.47;2.70;;;;;;;;;;5068716;28;20287;-64
2021/10/28 06:09:21;;;;;;;2.77;2.40;;;;;;;;;;5062418;28;20209;-65
2021/10/28 06:11:56;;;;;;;2.70;2.50;;;;;;;;;;5067202;28;21226;-65
2021/10/28 06:14:38;;;;;;;3.17;2.53;;;;;;;;;;5061248;28;20214;-65
2021/10/28 06:17:14;;;;;;;2.63;2.40;;;;;;;;;;5076059;28;20244;-63
2021/10/28 06:19:47;;;;;;;2.67;2.30;;;;;;;;;;5061301;28;20201;-64
2021/10/28 06:22:24;;;;;;;2.90;2.70;;;;;;;;;;5063028;28;20213;-66
2021/10/28 06:24:59;;;;;;;3.03;2.53;;;;;;;;;;5065242;28;20549;-66
2021/10/28 06:27:56;;;;;;;2.97;2.77;;;;;;;;;;5042088;28;20225;-66
2021/10/28 06:30:29;;;;;;;3.60;3.07;;;;;;;;;;5068532;28;20228;-66
2021/10/28 06:33:15;;;;;;;2.63;2.40;;;;;;;;;;5050107;28;20203;-66
2021/10/28 06:35:46;;;;;;;3.13;2.67;;;;;;;;;;5043105;28;20264;-65
2021/10/28 06:38:17;;;;;;;2.87;2.57;;;;;;;;;;5057344;28;20230;-65
2021/10/28 06:40:45;;;;;;;2.67;2.47;;;;;;;;;;5067171;28;20604;-66
2021/10/28 06:43:16;;;;;;;2.57;2.37;;;;;;;;;;5044789;28;20206;-67
2021/10/28 06:45:47;;;;;;;2.70;2.50;;;;;;;;;;5054009;28;20197;-65
2021/10/28 06:48:21;;;;;;;2.50;2.30;;;;;;;;;;5062057;28;20527;-65
2021/10/28 06:50:56;;;;;;;2.80;2.57;;;;;;;;;;5066910;28;20201;-65
2021/10/28 06:53:31;;;;;;;2.70;2.50;;;;;;;;;;5061118;28;20200;-65
2021/10/28 07:04:30;;;;;;;3.97;2.90;;;;;;;;;;5045379;28;20536;-66
2021/10/28 07:07:04;;;;;;;3.80;3.00;;;;;;;;;;5063272;28;20218;-65
2021/10/28 07:09:39;;;;;;;3.07;2.87;;;;;;;;;;5066334;28;20535;-65
2021/10/28 07:15:05;;;;;;;3.20;2.70;;;;;;;;;;5060933;28;20232;-66
2021/10/28 07:26:35;;;;;;;3.53;2.70;;;;;;;;;;5037854;28;20203;-67
2021/10/28 07:34:43;;;;;;;3.43;2.90;;;;;;;;;;5042186;28;20218;-67
2021/10/28 08:06:15;;;;;;;5.33;3.70;;;;;;;;;;5037620;28;20231;-64
2021/10/28 08:14:42;;;;;;;6.57;4.37;;;;;;;;;;5041842;28;20289;-66
2021/10/28 08:17:42;;;;;;;8.97;4.23;;;;;;;;;;5029051;28;20202;-67
2021/10/28 08:20:39;;;;;;;6.03;4.30;;;;;;;;;;5037341;28;20205;-67
2021/10/28 08:23:34;;;;;;;9.20;4.60;;;;;;;;;;5052141;28;20876;-67
2021/10/28 08:29:16;;;;;;;6.37;4.57;;;;;;;;;;5054837;28;20219;-65
2021/10/28 08:31:57;;;;;;;5.87;4.60;;;;;;;;;;5058392;28;20222;-65
2021/10/28 08:34:32;;;;;;;8.07;4.70;;;;;;;;;;5061587;28;20738;-65
2021/10/28 08:37:16;;;;;;;4.50;3.80;;;;;;;;;;5030860;28;20296;-65
2021/10/28 08:39:55;;;;;;;6.37;4.07;;;;;;;;;;5043198;28;20285;-65
2021/10/28 08:42:27;;;;;;;6.37;4.50;;;;;;;;;;5064792;28;20228;-65
2021/10/28 08:44:58;;;;;;;6.07;4.10;;;;;;;;;;5060294;28;20545;-64
2021/10/28 08:47:48;;;;;;;5.70;4.20;;;;;;;;;;5045927;28;20243;-66
2021/10/28 08:50:23;;;;;;;5.47;3.93;;;;;;;;;;5023588;28;20531;-65
2021/10/28 08:55:44;;;;;;;5.83;3.73;;;;;;;;;;5042933;28;20276;-66
2021/10/28 09:24:59;;;;;;;4.87;3.27;;;;;;;;;;5051936;28;20213;-65
2021/10/28 09:27:42;;;;;;;3.50;3.20;;;;;;;;;;5057109;28;20221;-65
2021/10/28 09:32:52;;;;;;;5.03;3.33;;;;;;;;;;5044543;28;20197;-65
2021/10/28 09:47:35;;;;;;;3.73;3.10;;;;;;;;;;5067248;28;20221;-66
2021/10/28 09:50:18;;;;;;;3.70;3.23;;;;;;;;;;5048477;28;20602;-66
2021/10/28 09:53:12;;;;;;;4.17;3.23;;;;;;;;;;5048661;28;20209;-66
2021/10/28 09:58:31;;;;;;;3.50;2.87;;;;;;;;;;5046492;28;20198;-66
2021/10/28 10:01:01;;;;;;;3.07;2.87;;;;;;;;;;5048584;28;20214;-66
2021/10/28 10:03:37;;;;;;;3.20;2.90;;;;;;;;;;5063043;28;20229;-66
2021/10/28 10:06:25;;;;;;;3.13;2.83;;;;;;;;;;5053359;28;20210;-66
2021/10/28 10:09:11;;;;;;;3.50;2.67;;;;;;;;;;5057551;28;20210;-67
2021/10/28 10:11:43;;;;;;;3.70;3.40;;;;;;;;;;5060398;28;20208;-67
2021/10/28 10:14:15;;;;;;;3.93;3.10;;;;;;;;;;5063835;28;20181;-66
2021/10/28 10:16:48;;;;;;;4.17;2.90;;;;;;;;;;5069977;28;20317;-64
2021/10/28 10:19:28;;;;;;;3.00;2.70;;;;;;;;;;5062388;28;20300;-65
2021/10/28 10:21:57;;;;;;;2.97;2.60;;;;;;;;;;5043572;28;20236;-66
2021/10/28 10:24:45;;;;;;;3.73;3.27;;;;;;;;;;5036432;28;20226;-67
2021/10/28 11:04:40;;;;;;;4.27;3.40;;;;;;;;;;5034043;28;20183;-64
2021/10/28 11:22:10;;;;;;;3.50;3.10;;;;;;;;;;5060497;28;20208;-71
2021/10/28 12:23:14;;;;;;;3.67;3.33;;;;;;;;;;5064401;28;20217;-66
2021/10/28 12:28:35;;;;;;;3.60;3.10;;;;;;;;;;5061752;28;20623;-65
2021/10/28 12:46:18;;;;;;;3.20;2.90;;;;;;;;;;5033351;28;20198;-66
2021/10/28 12:49:46;;;;;;;3.97;2.83;;;;;;;;;;5041604;28;20241;-65
2021/10/28 12:52:23;;;;;;;3.87;3.20;;;;;;;;;;5051912;28;20229;-67
2021/10/28 12:55:41;;;;;;;3.93;3.20;;;;;;;;;;5051213;28;20648;-67
2021/10/28 14:34:51;;;;;;;2.60;2.20;;;;;;;;;;4998092;28;20207;-66
2021/10/28 15:00:20;;;;;;;2.90;2.00;;;;;;;;;;5023065;28;20233;-65
2021/10/28 15:28:13;;;;;;;1.87;1.70;;;;;;;;;;5061490;28;20206;-63
2021/10/28 16:24:31;;;;;;;2.43;1.70;;;;;;;;;;5052941;28;20280;-65
2021/10/28 16:27:05;;;;;;;1.43;1.30;;;;;;;;;;5053043;28;20277;-65
2021/10/28 16:29:50;;;;;;;2.60;1.63;;;;;;;;;;5036565;28;20738;-65
2021/10/28 16:32:21;;;;;;;2.03;1.60;;;;;;;;;;5036854;28;20203;-64
2021/10/28 16:34:54;;;;;;;1.97;1.77;;;;;;;;;;5055971;28;20197;-64
2021/10/28 16:37:28;;;;;;;1.60;1.50;;;;;;;;;;5052012;28;20681;-64
2021/10/28 16:39:58;;;;;;;1.90;1.80;;;;;;;;;;5049825;28;20213;-64
2021/10/28 16:42:27;;;;;;;1.60;1.50;;;;;;;;;;5053712;28;20540;-64
2021/10/28 16:44:59;;;;;;;1.53;1.27;;;;;;;;;;5052578;28;20220;-64
2021/10/28 16:47:31;;;;;;;2.67;2.03;;;;;;;;;;5056317;28;20201;-64
2021/10/28 16:50:00;;;;;;;1.80;1.70;;;;;;;;;;5045511;28;20316;-64
2021/10/28 16:52:32;;;;;;;1.90;1.80;;;;;;;;;;5058372;28;20267;-64
2021/10/28 16:55:18;;;;;;;2.10;1.90;;;;;;;;;;5062869;28;20233;-68
2021/10/28 16:57:51;;;;;;;2.13;1.83;;;;;;;;;;5049894;28;20197;-64
2021/10/28 17:00:23;;;;;;;2.80;2.20;;;;;;;;;;5041732;28;20194;-64
2021/10/28 17:03:00;;;;;;;2.70;2.20;;;;;;;;;;5051403;28;20271;-64
2021/10/28 17:05:35;;;;;;;2.80;2.40;;;;;;;;;;5056060;28;20217;-64
2021/10/28 17:08:06;;;;;;;2.40;2.10;;;;;;;;;;5060182;28;20192;-64
2021/10/28 17:10:37;;;;;;;3.93;2.40;;;;;;;;;;5059860;28;20236;-64
2021/10/28 17:13:08;;;;;;;2.83;2.50;;;;;;;;;;5062546;28;20244;-64
2021/10/28 17:15:41;;;;;;;2.17;1.97;;;;;;;;;;5055428;28;20216;-64
2021/10/28 17:18:11;;;;;;;2.80;2.50;;;;;;;;;;5058290;28;20194;-65
2021/10/28 17:20:40;;;;;;;2.23;2.03;;;;;;;;;;5048551;28;20197;-64
2021/10/28 17:23:14;;;;;;;3.47;2.30;;;;;;;;;;5049516;28;20461;-64
2021/10/28 17:25:55;;;;;;;2.53;2.20;;;;;;;;;;5055452;28;20222;-64
2021/10/28 17:28:38;;;;;;;2.43;2.20;;;;;;;;;;5047158;28;20271;-64
2021/10/28 17:31:08;;;;;;;2.50;1.90;;;;;;;;;;5064756;28;20636;-64
2021/10/28 17:33:39;;;;;;;2.80;2.13;;;;;;;;;;5033423;28;20256;-64
2021/10/28 17:36:23;;;;;;;2.60;2.37;;;;;;;;;;5059804;28;20307;-64
2021/10/28 17:38:57;;;;;;;4.40;2.40;;;;;;;;;;5046264;28;20192;-64
2021/10/28 17:41:30;;;;;;;2.80;2.53;;;;;;;;;;5061432;28;20212;-64
2021/10/28 17:44:05;;;;;;;3.07;2.43;;;;;;;;;;5066997;28;20190;-64
2021/10/28 17:46:37;;;;;;;2.67;2.47;;;;;;;;;;5060674;28;20193;-64
2021/10/28 17:49:09;;;;;;;4.07;2.90;;;;;;;;;;5056535;28;20674;-64
2021/10/28 17:51:41;;;;;;;2.80;2.53;;;;;;;;;;5042564;28;20190;-64
2021/10/28 17:54:13;;;;;;;3.30;3.00;;;;;;;;;;5068551;28;20621;-64
2021/10/28 17:56:45;;;;;;;3.17;2.87;;;;;;;;;;5064727;28;20623;-64
2021/10/28 17:59:18;;;;;;;4.40;2.70;;;;;;;;;;5073472;28;20201;-64
2021/10/28 18:01:50;;;;;;;2.80;2.60;;;;;;;;;;5053851;28;20216;-64
2021/10/28 18:04:25;;;;;;;2.60;2.40;;;;;;;;;;5050763;28;20274;-64
2021/10/28 18:07:01;;;;;;;2.87;2.53;;;;;;;;;;5064247;28;20620;-64
2021/10/28 18:09:44;;;;;;;4.37;3.03;;;;;;;;;;5047783;28;20540;-64
2021/10/28 18:12:16;;;;;;;3.30;2.60;;;;;;;;;;5039517;28;20215;-64
2021/10/28 18:14:47;;;;;;;2.77;2.57;;;;;;;;;;5031449;28;20206;-64
2021/10/28 18:17:18;;;;;;;3.00;2.70;;;;;;;;;;5040285;28;20202;-65
2021/10/28 18:19:52;;;;;;;2.80;2.60;;;;;;;;;;5063999;28;20212;-64
2021/10/28 18:22:29;;;;;;;3.23;2.93;;;;;;;;;;5061986;28;20197;-64
2021/10/28 18:25:03;;;;;;;2.87;2.60;;;;;;;;;;5063278;28;20221;-64
2021/10/28 18:27:45;;;;;;;3.13;2.83;;;;;;;;;;5054799;28;20293;-64
2021/10/28 18:30:18;;;;;;;2.97;2.67;;;;;;;;;;5045326;28;20226;-64
2021/10/28 18:32:52;;;;;;;2.80;2.60;;;;;;;;;;5051029;28;20454;-64
2021/10/28 18:35:22;;;;;;;3.87;3.03;;;;;;;;;;5062255;28;20289;-64
2021/10/28 18:37:55;;;;;;;3.37;2.90;;;;;;;;;;5058746;28;20219;-64
2021/10/28 18:40:25;;;;;;;3.47;3.17;;;;;;;;;;5067286;28;20202;-64
2021/10/28 18:42:57;;;;;;;3.40;3.10;;;;;;;;;;5046267;28;20198;-65
2021/10/28 18:45:28;;;;;;;3.03;2.73;;;;;;;;;;5062769;28;20260;-64
2021/10/28 18:47:59;;;;;;;3.63;3.33;;;;;;;;;;5056373;28;20640;-64
2021/10/28 18:50:29;;;;;;;3.70;3.40;;;;;;;;;;5049750;28;20222;-64
2021/10/28 18:52:59;;;;;;;3.17;2.87;;;;;;;;;;5045025;28;20198;-64
2021/10/28 18:55:36;;;;;;;3.50;3.20;;;;;;;;;;5060992;28;20636;-64
2021/10/28 18:58:06;;;;;;;3.17;2.87;;;;;;;;;;5044655;28;20202;-64
2021/10/28 19:00:41;;;;;;;3.33;3.03;;;;;;;;;;5056755;28;20925;-65
2021/10/28 19:03:12;;;;;;;3.37;3.07;;;;;;;;;;5036982;28;20195;-64
2021/10/28 19:05:44;;;;;;;3.43;3.13;;;;;;;;;;5055229;28;20214;-64
2021/10/28 19:08:15;;;;;;;3.40;3.10;;;;;;;;;;5030237;28;20218;-64
2021/10/28 19:10:42;;;;;;;3.40;3.10;;;;;;;;;;5059659;28;20230;-64
2021/10/28 19:13:13;;;;;;;3.47;3.10;;;;;;;;;;5049637;28;20285;-64
2021/10/28 19:15:44;;;;;;;3.27;2.93;;;;;;;;;;5055993;28;20190;-64
2021/10/28 19:18:16;;;;;;;3.37;3.07;;;;;;;;;;5038390;28;20198;-64
2021/10/28 19:20:48;;;;;;;3.07;2.87;;;;;;;;;;5063262;28;20214;-64
2021/10/28 19:23:31;;;;;;;3.50;3.00;;;;;;;;;;5060197;28;20960;-64
2021/10/28 19:26:00;;;;;;;3.80;3.43;;;;;;;;;;5039033;28;20210;-64
2021/10/28 19:28:29;;;;;;;3.37;3.03;;;;;;;;;;5030935;28;20210;-64
2021/10/28 19:31:09;;;;;;;3.20;2.90;;;;;;;;;;5061152;28;20214;-64
2021/10/28 19:33:48;;;;;;;3.50;3.20;;;;;;;;;;5049620;28;20698;-64
2021/10/28 19:36:34;;;;;;;3.00;2.70;;;;;;;;;;5027714;28;20296;-64
2021/10/28 19:47:17;;;;;;;3.47;2.63;;;;;;;;;;5058140;28;20205;-64
2021/10/28 19:49:49;;;;;;;3.40;3.10;;;;;;;;;;5051659;28;20239;-64
2021/10/28 19:52:20;;;;;;;3.43;2.97;;;;;;;;;;5050157;28;20343;-64
2021/10/28 19:54:58;;;;;;;3.20;2.90;;;;;;;;;;5063231;28;20190;-64
2021/10/28 19:57:31;;;;;;;2.97;2.77;;;;;;;;;;5038482;28;20260;-64
2021/10/28 20:00:11;;;;;;;3.10;2.80;;;;;;;;;;5037027;28;20210;-64
2021/10/28 20:22:18;;;;;;;2.93;2.67;;;;;;;;;;5047567;28;20226;-64
2021/10/28 20:24:50;;;;;;;3.23;2.93;;;;;;;;;;5044352;28;20619;-64
2021/10/28 20:27:22;;;;;;;3.40;3.10;;;;;;;;;;5057962;28;20201;-64
2021/10/28 20:29:51;;;;;;;3.77;3.23;;;;;;;;;;5056676;28;20700;-65
2021/10/28 20:32:22;;;;;;;2.83;2.60;;;;;;;;;;5055928;28;20640;-65
2021/10/28 20:37:47;;;;;;;3.10;2.67;;;;;;;;;;5056222;28;20211;-65
2021/10/28 20:40:17;;;;;;;3.30;3.00;;;;;;;;;;5056533;28;20216;-65
2021/10/28 20:42:50;;;;;;;3.27;2.97;;;;;;;;;;5041610;28;20197;-65
2021/10/28 20:45:28;;;;;;;2.57;2.37;;;;;;;;;;5039646;28;20210;-65
2021/10/28 20:47:59;;;;;;;3.20;2.90;;;;;;;;;;5056550;28;20236;-66
2021/10/28 20:50:30;;;;;;;3.43;3.13;;;;;;;;;;5056221;28;20218;-64
2021/10/28 20:53:00;;;;;;;3.00;2.80;;;;;;;;;;5048608;28;20337;-64
2021/10/28 20:55:31;;;;;;;3.03;2.80;;;;;;;;;;5063765;28;20267;-64
2021/10/28 20:58:03;;;;;;;3.17;2.87;;;;;;;;;;5048801;28;20204;-64
2021/10/28 21:00:35;;;;;;;3.60;3.20;;;;;;;;;;5058693;28;20217;-64
2021/10/28 21:03:06;;;;;;;5.23;2.90;;;;;;;;;;5065055;28;20198;-64
2021/10/28 21:05:38;;;;;;;4.13;2.77;;;;;;;;;;5063570;28;20232;-64
2021/10/28 21:08:11;;;;;;;3.23;2.93;;;;;;;;;;5049942;28;20201;-64
2021/10/28 21:10:43;;;;;;;3.40;3.00;;;;;;;;;;5063672;28;20306;-64
2021/10/28 21:13:19;;;;;;;5.67;3.37;;;;;;;;;;5055382;28;20347;-64
2021/10/28 21:15:50;;;;;;;3.53;3.13;;;;;;;;;;5049221;28;20198;-63
2021/10/28 21:18:23;;;;;;;4.33;3.17;;;;;;;;;;5064616;28;20193;-64
2021/10/28 21:20:56;;;;;;;3.67;3.37;;;;;;;;;;5067806;28;20926;-64
2021/10/28 21:23:27;;;;;;;3.77;3.47;;;;;;;;;;5054036;28;20225;-64
2021/10/28 21:26:01;;;;;;;4.03;3.23;;;;;;;;;;5070045;28;20671;-64
2021/10/28 21:28:29;;;;;;;3.53;3.10;;;;;;;;;;5082978;28;20624;-64
2021/10/28 21:30:59;;;;;;;3.50;3.00;;;;;;;;;;5078101;28;20214;-64
2021/10/28 21:33:33;;;;;;;3.03;2.73;;;;;;;;;;5070540;28;20202;-65
2021/10/28 21:36:03;;;;;;;5.73;3.77;;;;;;;;;;5065014;28;20229;-64
2021/10/28 21:38:33;;;;;;;3.50;3.20;;;;;;;;;;5050373;28;20198;-64
2021/10/28 21:41:07;;;;;;;3.43;3.13;;;;;;;;;;5054038;28;20644;-65
2021/10/28 21:43:39;;;;;;;3.67;3.13;;;;;;;;;;5043380;28;20213;-64
2021/10/28 21:46:10;;;;;;;3.60;3.30;;;;;;;;;;5080387;28;20197;-64
2021/10/28 21:48:53;;;;;;;3.10;2.90;;;;;;;;;;5061075;28;20680;-64
2021/10/28 21:51:24;;;;;;;3.10;2.80;;;;;;;;;;5050640;28;20225;-64
2021/10/28 21:53:58;;;;;;;3.50;3.20;;;;;;;;;;5044750;28;20202;-65
2021/10/28 21:56:47;;;;;;;3.83;3.17;;;;;;;;;;5058121;28;20249;-65
2021/10/28 22:24:51;;;;;;;4.43;3.23;;;;;;;;;;5065285;28;20322;-64
2021/10/28 22:27:26;;;;;;;3.73;3.43;;;;;;;;;;5054105;28;20228;-64
2021/10/28 22:30:07;;;;;;;3.33;3.03;;;;;;;;;;5054098;28;20198;-64
2021/10/28 22:32:48;;;;;;;3.47;3.13;;;;;;;;;;5045128;28;20190;-64
2021/10/28 22:38:34;;;;;;;3.83;3.50;;;;;;;;;;5028665;28;20217;-65
2021/10/28 22:41:08;;;;;;;6.20;3.40;;;;;;;;;;5065810;28;20266;-64
2021/10/28 22:43:38;;;;;;;3.30;3.00;;;;;;;;;;5057651;28;20209;-64
2021/10/28 22:46:11;;;;;;;3.97;3.27;;;;;;;;;;5049724;28;20199;-64
2021/10/28 22:48:43;;;;;;;4.07;3.33;;;;;;;;;;5058144;28;20284;-64
2021/10/28 22:51:15;;;;;;;3.80;3.47;;;;;;;;;;5064428;28;20217;-64
2021/10/28 22:53:45;;;;;;;3.87;3.13;;;;;;;;;;5063885;28;20201;-65
2021/10/28 22:56:17;;;;;;;3.83;3.43;;;;;;;;;;5066797;28;20205;-64
2021/10/28 22:58:51;;;;;;;3.70;3.40;;;;;;;;;;5062158;28;20200;-64
2021/10/28 23:01:25;;;;;;;3.43;3.13;;;;;;;;;;5062957;28;20236;-64
2021/10/28 23:06:59;;;;;;;3.30;3.00;;;;;;;;;;5058068;28;20268;-64
2021/10/28 23:15:29;;;;;;;3.30;2.87;;;;;;;;;;5062863;28;20284;-64
2021/10/28 23:20:50;;;;;;;3.63;3.20;;;;;;;;;;5042824;28;20216;-64
2021/10/28 23:23:24;;;;;;;3.47;3.03;;;;;;;;;;5051609;28;20363;-64
2021/10/28 23:25:55;;;;;;;3.57;3.27;;;;;;;;;;5053839;28;20218;-64
2021/10/28 23:28:31;;;;;;;3.63;3.33;;;;;;;;;;5051700;28;20223;-64
2021/10/28 23:31:02;;;;;;;3.73;3.33;;;;;;;;;;5056780;28;20273;-64
2021/10/28 23:33:32;;;;;;;3.57;3.03;;;;;;;;;;5059648;28;20726;-64
2021/10/28 23:36:02;;;;;;;3.90;3.50;;;;;;;;;;5055878;28;20213;-64
2021/10/28 23:38:34;;;;;;;3.97;3.60;;;;;;;;;;5060950;28;20300;-64
2021/10/28 23:41:09;;;;;;;3.67;3.37;;;;;;;;;;5051617;28;20271;-64
2021/10/28 23:43:36;;;;;;;4.10;3.70;;;;;;;;;;5056834;28;20197;-64
2021/10/28 23:46:06;;;;;;;3.10;2.90;;;;;;;;;;5058558;28;20198;-65
2021/10/28 23:48:38;;;;;;;4.20;3.30;;;;;;;;;;5059866;28;20222;-64
2021/10/28 23:51:09;;;;;;;3.80;3.40;;;;;;;;;;5045979;28;20214;-64
2021/10/28 23:53:40;;;;;;;3.50;3.20;;;;;;;;;;5070023;28;20665;-64
2021/10/28 23:56:10;;;;;;;3.60;3.30;;;;;;;;;;5060137;28;20719;-64
2021/10/28 23:58:40;;;;;;;4.30;3.30;;;;;;;;;;5054544;28;20201;-64
